Time;durP1;ratioP1;P1;durP2;ratioP2;P2;SDS_P1;SDS_P2;PMS_P1;PMS_P2;Temp;Humidity;BMP_temperature;BMP_pressure;BME280_temperature;BME280_humidity;BME280_pressure;Samples;Min_cycle;Max_cycle;Signal;HPM_P1;HPM_P2
2022/06/10 00:00:23;;;;;;;6.88;6.32;;;;;;;;;;5155525;27;20141;-72
2022/06/10 00:02:49;;;;;;;6.10;5.57;;;;;;;;;;5155460;27;20022;-71
2022/06/10 00:05:16;;;;;;;5.47;5.13;;;;;;;;;;5155452;27;20381;-70
2022/06/10 00:07:41;;;;;;;7.80;5.63;;;;;;;;;;5155427;27;20454;-70
2022/06/10 00:10:08;;;;;;;5.30;4.97;;;;;;;;;;5155323;27;20030;-71
2022/06/10 00:12:33;;;;;;;5.90;5.50;;;;;;;;;;5155440;27;20054;-70
2022/06/10 00:14:58;;;;;;;5.70;5.30;;;;;;;;;;5155313;27;20058;-71
2022/06/10 00:17:23;;;;;;;5.60;5.20;;;;;;;;;;5155347;27;20011;-71
2022/06/10 00:19:49;;;;;;;6.05;5.55;;;;;;;;;;5155195;27;20279;-70
2022/06/10 00:22:14;;;;;;;5.82;5.32;;;;;;;;;;5155291;27;20018;-70
2022/06/10 00:24:40;;;;;;;6.25;5.65;;;;;;;;;;5155223;27;20034;-69
2022/06/10 00:27:05;;;;;;;5.93;5.43;;;;;;;;;;5136983;27;20026;-70
2022/06/10 00:29:31;;;;;;;6.22;5.70;;;;;;;;;;5155183;27;20051;-70
2022/06/10 00:31:57;;;;;;;6.57;6.07;;;;;;;;;;5155227;27;20397;-70
2022/06/10 00:34:23;;;;;;;6.30;5.68;;;;;;;;;;5155182;27;20038;-71
2022/06/10 00:36:48;;;;;;;6.53;6.03;;;;;;;;;;5155173;27;20019;-71
2022/06/10 00:39:14;;;;;;;5.82;5.40;;;;;;;;;;5155013;27;20126;-70
2022/06/10 00:41:43;;;;;;;6.28;5.68;;;;;;;;;;5139404;27;20014;-70
2022/06/10 00:44:26;;;;;;;5.88;5.38;;;;;;;;;;5159346;27;20027;-70
2022/06/10 00:46:53;;;;;;;6.72;5.22;;;;;;;;;;5159278;27;20035;-70
2022/06/10 00:49:18;;;;;;;5.93;5.50;;;;;;;;;;5159558;27;20022;-70
2022/06/10 00:51:46;;;;;;;5.68;5.18;;;;;;;;;;5159186;27;20031;-70
2022/06/10 00:54:14;;;;;;;5.57;5.15;;;;;;;;;;5159166;27;20033;-70
2022/06/10 00:56:42;;;;;;;5.72;5.22;;;;;;;;;;5159153;27;20099;-69
2022/06/10 00:59:11;;;;;;;6.35;5.85;;;;;;;;;;5158885;27;20105;-69
2022/06/10 01:01:37;;;;;;;6.40;5.87;;;;;;;;;;5159031;27;20019;-71
2022/06/10 01:04:03;;;;;;;6.93;6.35;;;;;;;;;;5158893;27;20085;-70
2022/06/10 01:06:28;;;;;;;6.78;6.22;;;;;;;;;;5158822;27;20073;-70
2022/06/10 01:08:55;;;;;;;6.63;6.13;;;;;;;;;;5158776;27;20429;-70
2022/06/10 01:11:32;;;;;;;6.18;5.68;;;;;;;;;;5158742;27;20117;-70
2022/06/10 01:14:07;;;;;;;6.38;5.85;;;;;;;;;;5158728;27;20034;-70
2022/06/10 01:16:49;;;;;;;6.40;5.80;;;;;;;;;;5158655;27;20030;-71
2022/06/10 01:19:17;;;;;;;6.22;4.95;;;;;;;;;;5158609;27;20030;-71
2022/06/10 01:21:50;;;;;;;6.68;5.85;;;;;;;;;;5158640;27;20026;-70
2022/06/10 01:24:23;;;;;;;6.43;5.88;;;;;;;;;;5158516;27;20019;-70
2022/06/10 01:30:06;;;;;;;4.93;4.60;;;;;;;;;;5158435;27;20058;-70
2022/06/10 01:32:41;;;;;;;5.57;5.18;;;;;;;;;;5158527;27;20110;-71
2022/06/10 01:35:20;;;;;;;6.72;6.13;;;;;;;;;;5158369;27;20045;-71
2022/06/10 01:37:58;;;;;;;6.20;5.70;;;;;;;;;;5158511;27;20478;-70
2022/06/10 01:40:40;;;;;;;6.07;5.57;;;;;;;;;;5158197;27;20067;-70
2022/06/10 01:43:16;;;;;;;5.32;5.03;;;;;;;;;;5158222;27;20026;-68
2022/06/10 01:45:48;;;;;;;5.45;5.05;;;;;;;;;;5158102;27;20022;-70
2022/06/10 01:48:19;;;;;;;5.45;5.05;;;;;;;;;;5158075;27;20022;-70
2022/06/10 01:51:13;;;;;;;5.38;4.90;;;;;;;;;;5158208;27;20377;-70
2022/06/10 01:53:40;;;;;;;6.38;5.88;;;;;;;;;;5144030;27;20053;-69
2022/06/10 01:56:10;;;;;;;6.22;5.70;;;;;;;;;;5157926;27;20377;-70
2022/06/10 01:58:38;;;;;;;6.20;5.60;;;;;;;;;;5157839;27;20031;-69
2022/06/10 02:01:08;;;;;;;5.90;5.38;;;;;;;;;;5157921;27;20029;-70
2022/06/10 02:03:38;;;;;;;6.35;5.80;;;;;;;;;;5157795;27;20027;-69
2022/06/10 02:06:04;;;;;;;6.68;6.07;;;;;;;;;;5157948;27;20031;-69
2022/06/10 02:08:31;;;;;;;6.95;6.32;;;;;;;;;;5157755;27;20019;-71
2022/06/10 02:11:00;;;;;;;7.05;6.43;;;;;;;;;;5157731;27;20019;-71
2022/06/10 02:13:28;;;;;;;6.45;5.93;;;;;;;;;;5157543;27;20033;-71
2022/06/10 02:15:56;;;;;;;5.65;5.25;;;;;;;;;;5157484;27;20056;-70
2022/06/10 02:18:24;;;;;;;5.88;5.38;;;;;;;;;;5157497;27;20450;-69
2022/06/10 02:20:52;;;;;;;6.55;6.03;;;;;;;;;;5157397;27;20536;-70
2022/06/10 02:23:20;;;;;;;7.28;6.60;;;;;;;;;;5157334;27;20030;-70
2022/06/10 02:25:50;;;;;;;6.47;5.88;;;;;;;;;;5157271;27;20419;-70
2022/06/10 02:28:15;;;;;;;;;;;;;;;;;;5157812;27;20377;-71
2022/06/10 02:30:43;;;;;;;7.43;6.75;;;;;;;;;;5157051;27;20334;-72
2022/06/10 02:33:10;;;;;;;7.60;6.90;;;;;;;;;;5157249;27;20034;-71
2022/06/10 02:35:47;;;;;;;8.10;7.43;;;;;;;;;;5157090;27;20019;-71
2022/06/10 02:38:18;;;;;;;8.05;7.28;;;;;;;;;;5157159;27;20038;-72
2022/06/10 02:40:52;;;;;;;6.82;6.22;;;;;;;;;;5157027;27;20121;-71
2022/06/10 02:43:27;;;;;;;7.28;6.60;;;;;;;;;;5157072;27;20106;-71
2022/06/10 02:46:03;;;;;;;7.25;6.55;;;;;;;;;;5157010;27;20026;-71
2022/06/10 02:48:28;;;;;;;7.32;6.68;;;;;;;;;;5156779;27;20039;-70
2022/06/10 02:50:53;;;;;;;6.95;6.30;;;;;;;;;;5156817;27;20019;-71
2022/06/10 02:53:19;;;;;;;8.27;6.75;;;;;;;;;;5156861;27;20027;-70
2022/06/10 02:55:44;;;;;;;7.75;7.15;;;;;;;;;;5156697;27;20022;-70
2022/06/10 03:01:12;;;;;;;7.50;6.80;;;;;;;;;;5156672;27;20030;-71
2022/06/10 03:03:40;;;;;;;7.88;7.07;;;;;;;;;;5155828;27;20046;-70
2022/06/10 03:06:17;;;;;;;7.28;6.57;;;;;;;;;;5156674;27;20022;-71
2022/06/10 03:08:54;;;;;;;6.70;6.07;;;;;;;;;;5156646;27;20034;-71
2022/06/10 03:11:26;;;;;;;6.03;5.53;;;;;;;;;;5156425;27;20026;-70
2022/06/10 03:14:08;;;;;;;6.60;6.10;;;;;;;;;;5156386;27;20035;-71
2022/06/10 03:16:33;;;;;;;5.88;5.38;;;;;;;;;;5156359;27;20026;-71
2022/06/10 03:19:05;;;;;;;6.80;6.30;;;;;;;;;;5156261;27;20461;-70
2022/06/10 03:21:49;;;;;;;7.15;6.22;;;;;;;;;;5156234;27;20027;-70
2022/06/10 03:24:24;;;;;;;6.55;5.75;;;;;;;;;;5156244;27;20015;-70
2022/06/10 03:26:59;;;;;;;14.48;5.38;;;;;;;;;;5156117;27;20435;-70
2022/06/10 03:29:33;;;;;;;6.05;5.47;;;;;;;;;;5155888;27;20477;-71
2022/06/10 03:32:26;;;;;;;5.10;4.72;;;;;;;;;;5156077;27;20030;-69
2022/06/10 03:35:03;;;;;;;6.32;5.82;;;;;;;;;;5130401;27;20057;-73
2022/06/10 03:37:28;;;;;;;6.72;5.40;;;;;;;;;;5155160;27;20026;-70
2022/06/10 03:39:55;;;;;;;6.50;5.90;;;;;;;;;;5154825;27;20509;-70
2022/06/10 03:42:22;;;;;;;5.65;5.15;;;;;;;;;;5155443;27;20373;-70
2022/06/10 03:44:49;;;;;;;7.07;6.45;;;;;;;;;;5154806;27;20030;-71
2022/06/10 03:47:20;;;;;;;7.13;6.47;;;;;;;;;;5154730;27;20033;-70
2022/06/10 03:50:01;;;;;;;6.25;5.68;;;;;;;;;;5154625;27;20079;-70
2022/06/10 03:52:28;;;;;;;6.35;5.63;;;;;;;;;;5154632;27;20477;-70
2022/06/10 03:54:54;;;;;;;7.88;7.03;;;;;;;;;;5154855;27;20030;-70
2022/06/10 03:57:19;;;;;;;6.88;6.18;;;;;;;;;;5154785;27;20422;-71
2022/06/10 03:59:45;;;;;;;6.88;6.18;;;;;;;;;;5154418;27;20050;-71
2022/06/10 04:02:10;;;;;;;5.82;5.25;;;;;;;;;;5154532;27;20111;-71
2022/06/10 04:04:36;;;;;;;7.13;6.43;;;;;;;;;;5154430;27;20106;-70
2022/06/10 04:07:01;;;;;;;6.63;6.03;;;;;;;;;;5154456;27;20026;-70
2022/06/10 04:09:27;;;;;;;7.97;6.20;;;;;;;;;;5154403;27;20466;-71
2022/06/10 04:11:52;;;;;;;7.30;6.45;;;;;;;;;;5154364;27;20086;-69
2022/06/10 04:14:17;;;;;;;8.25;7.55;;;;;;;;;;5154195;27;20484;-70
2022/06/10 04:16:43;;;;;;;6.45;5.93;;;;;;;;;;5154243;27;20051;-70
2022/06/10 04:19:09;;;;;;;6.73;6.10;;;;;;;;;;5154253;27;20019;-70
2022/06/10 04:21:34;;;;;;;7.75;6.10;;;;;;;;;;5154130;27;20351;-71
2022/06/10 04:24:00;;;;;;;8.50;7.65;;;;;;;;;;5154567;27;20093;-70
2022/06/10 04:26:25;;;;;;;7.35;6.70;;;;;;;;;;5155130;27;20452;-71
2022/06/10 04:28:50;;;;;;;9.40;8.48;;;;;;;;;;5154016;27;20522;-69
2022/06/10 04:31:16;;;;;;;9.57;8.52;;;;;;;;;;5154919;27;20374;-70
2022/06/10 04:33:41;;;;;;;11.85;10.55;;;;;;;;;;5155159;27;20023;-71
2022/06/10 04:36:08;;;;;;;8.93;7.43;;;;;;;;;;5154628;27;20042;-70
2022/06/10 04:38:34;;;;;;;10.35;9.32;;;;;;;;;;5154005;27;20027;-70
2022/06/10 04:40:59;;;;;;;11.13;8.77;;;;;;;;;;5153926;27;20019;-69
2022/06/10 04:43:26;;;;;;;11.48;9.85;;;;;;;;;;5152071;27;20022;-69
2022/06/10 04:45:53;;;;;;;12.15;9.55;;;;;;;;;;5152657;27;20101;-69
2022/06/10 04:48:19;;;;;;;9.45;8.48;;;;;;;;;;5152354;27;20011;-69
2022/06/10 04:50:47;;;;;;;10.27;8.98;;;;;;;;;;5152323;27;20130;-70
2022/06/10 04:53:13;;;;;;;13.65;9.60;;;;;;;;;;5152051;27;20032;-70
2022/06/10 04:55:38;;;;;;;10.02;9.02;;;;;;;;;;5151890;27;20027;-70
2022/06/10 04:58:03;;;;;;;10.85;9.75;;;;;;;;;;5153192;27;20103;-69
2022/06/10 05:00:31;;;;;;;9.85;8.65;;;;;;;;;;5153723;27;20031;-69
2022/06/10 05:02:57;;;;;;;13.40;9.88;;;;;;;;;;5153888;27;20023;-70
2022/06/10 05:05:22;;;;;;;10.13;8.90;;;;;;;;;;5153786;27;20385;-70
2022/06/10 05:07:48;;;;;;;11.20;9.65;;;;;;;;;;5153706;27;20022;-70
2022/06/10 05:10:14;;;;;;;10.73;9.30;;;;;;;;;;5153750;27;20026;-70
2022/06/10 05:12:40;;;;;;;10.52;9.43;;;;;;;;;;5153650;27;20484;-70
2022/06/10 05:15:06;;;;;;;8.95;8.05;;;;;;;;;;5153773;27;20031;-70
2022/06/10 05:17:31;;;;;;;10.43;9.05;;;;;;;;;;5153663;27;20529;-70
2022/06/10 05:19:57;;;;;;;10.98;8.75;;;;;;;;;;5153548;27;20027;-69
2022/06/10 05:22:22;;;;;;;10.02;9.02;;;;;;;;;;5153643;27;20101;-70
2022/06/10 05:24:48;;;;;;;11.07;9.65;;;;;;;;;;5153614;27;20041;-72
2022/06/10 05:27:13;;;;;;;14.93;10.98;;;;;;;;;;5155561;27;20087;-68
2022/06/10 05:29:38;;;;;;;12.88;11.13;;;;;;;;;;5157325;27;20088;-68
2022/06/10 05:32:04;;;;;;;14.52;12.15;;;;;;;;;;5157372;27;20311;-68
2022/06/10 05:34:45;;;;;;;13.40;10.68;;;;;;;;;;5157572;27;20022;-68
2022/06/10 05:37:10;;;;;;;11.35;9.93;;;;;;;;;;5157544;27;20110;-67
2022/06/10 05:39:36;;;;;;;11.98;10.23;;;;;;;;;;5157130;27;20118;-69
2022/06/10 05:42:04;;;;;;;11.27;10.13;;;;;;;;;;5157103;27;20071;-68
2022/06/10 05:44:30;;;;;;;13.18;11.77;;;;;;;;;;5157079;27;20033;-69
2022/06/10 05:46:55;;;;;;;10.68;9.60;;;;;;;;;;5157292;27;20537;-69
2022/06/10 05:49:21;;;;;;;10.18;9.13;;;;;;;;;;5157108;27;20022;-69
2022/06/10 05:51:46;;;;;;;10.63;9.50;;;;;;;;;;5157186;27;20072;-69
2022/06/10 05:54:12;;;;;;;12.20;10.30;;;;;;;;;;5156909;27;20480;-69
2022/06/10 05:56:37;;;;;;;10.68;9.45;;;;;;;;;;5156985;27;20027;-69
2022/06/10 05:59:03;;;;;;;9.53;8.53;;;;;;;;;;5157082;27;20461;-70
2022/06/10 06:01:28;;;;;;;13.48;9.18;;;;;;;;;;5156733;27;20839;-69
2022/06/10 06:03:54;;;;;;;11.95;8.80;;;;;;;;;;5156888;27;20048;-69
2022/06/10 06:06:19;;;;;;;10.23;9.15;;;;;;;;;;5139137;27;20109;-70
2022/06/10 06:08:46;;;;;;;11.10;9.65;;;;;;;;;;5157643;27;20025;-71
2022/06/10 06:11:12;;;;;;;10.65;9.57;;;;;;;;;;5157621;27;20035;-69
2022/06/10 06:13:37;;;;;;;13.20;10.90;;;;;;;;;;5157012;27;20018;-69
2022/06/10 06:16:03;;;;;;;16.13;12.27;;;;;;;;;;5157556;27;20022;-70
2022/06/10 06:18:28;;;;;;;11.43;10.00;;;;;;;;;;5157457;27;20071;-70
2022/06/10 06:20:53;;;;;;;13.40;10.30;;;;;;;;;;5156581;27;20067;-70
2022/06/10 06:23:20;;;;;;;12.57;9.90;;;;;;;;;;5156937;27;20023;-69
2022/06/10 06:25:45;;;;;;;16.17;12.35;;;;;;;;;;5156654;27;20023;-70
2022/06/10 06:28:10;;;;;;;16.50;12.23;;;;;;;;;;5156193;27;20492;-69
2022/06/10 06:30:37;;;;;;;15.07;11.63;;;;;;;;;;5155971;27;20074;-69
2022/06/10 06:33:04;;;;;;;14.05;11.82;;;;;;;;;;5156004;27;20026;-70
2022/06/10 06:35:30;;;;;;;15.35;12.27;;;;;;;;;;5157140;27;20015;-69
2022/06/10 06:37:55;;;;;;;19.02;14.77;;;;;;;;;;5157093;27;20362;-70
2022/06/10 06:40:21;;;;;;;20.37;14.60;;;;;;;;;;5156979;27;20076;-70
2022/06/10 06:42:47;;;;;;;15.90;12.68;;;;;;;;;;5157197;27;20708;-70
2022/06/10 06:45:13;;;;;;;20.33;15.45;;;;;;;;;;5156928;27;20110;-70
2022/06/10 06:47:40;;;;;;;18.63;15.23;;;;;;;;;;5156865;27;20027;-69
2022/06/10 06:50:05;;;;;;;17.17;13.13;;;;;;;;;;5138306;27;20374;-69
2022/06/10 06:52:31;;;;;;;20.27;15.65;;;;;;;;;;5156833;27;20121;-69
2022/06/10 06:54:56;;;;;;;18.65;14.10;;;;;;;;;;5156857;27;20023;-70
2022/06/10 06:57:21;;;;;;;16.90;14.30;;;;;;;;;;5156653;27;20068;-69
2022/06/10 06:59:47;;;;;;;14.75;11.75;;;;;;;;;;5156560;27;20029;-69
2022/06/10 07:02:12;;;;;;;20.75;15.05;;;;;;;;;;5138022;27;20034;-69
2022/06/10 07:04:38;;;;;;;17.55;13.32;;;;;;;;;;5156549;27;20019;-70
2022/06/10 07:07:03;;;;;;;19.48;14.88;;;;;;;;;;5156475;27;20497;-68
2022/06/10 07:09:29;;;;;;;15.90;13.25;;;;;;;;;;5156511;27;20110;-69
2022/06/10 07:11:55;;;;;;;18.08;15.07;;;;;;;;;;5156918;27;20022;-69
2022/06/10 07:14:22;;;;;;;19.95;14.38;;;;;;;;;;5156360;27;20469;-69
2022/06/10 07:16:51;;;;;;;13.48;11.75;;;;;;;;;;5156319;27;20477;-69
2022/06/10 07:19:16;;;;;;;18.23;13.82;;;;;;;;;;5156218;27;20026;-69
2022/06/10 07:21:42;;;;;;;16.13;13.07;;;;;;;;;;5156241;27;20019;-70
2022/06/10 07:24:07;;;;;;;12.60;11.30;;;;;;;;;;5156273;27;20015;-69
2022/06/10 07:26:32;;;;;;;13.80;12.30;;;;;;;;;;5156209;27;20111;-69
2022/06/10 07:28:58;;;;;;;12.77;11.47;;;;;;;;;;5137760;27;20052;-69
2022/06/10 07:31:23;;;;;;;11.98;10.45;;;;;;;;;;5156053;27;20268;-69
2022/06/10 07:33:48;;;;;;;12.35;10.88;;;;;;;;;;5156047;27;20548;-69
2022/06/10 07:36:14;;;;;;;12.10;10.75;;;;;;;;;;5155955;27;20114;-68
2022/06/10 07:38:39;;;;;;;12.38;10.93;;;;;;;;;;5155819;27;20465;-69
2022/06/10 07:43:49;;;;;;;11.02;9.80;;;;;;;;;;5155833;27;20069;-69
2022/06/10 07:46:16;;;;;;;10.63;9.63;;;;;;;;;;5155798;27;20038;-68
2022/06/10 07:48:42;;;;;;;10.30;9.40;;;;;;;;;;5155644;27;20489;-68
2022/06/10 07:51:07;;;;;;;11.38;10.18;;;;;;;;;;5155405;27;20044;-69
2022/06/10 07:53:32;;;;;;;10.68;9.57;;;;;;;;;;5155650;27;20071;-69
2022/06/10 07:55:59;;;;;;;11.27;10.17;;;;;;;;;;5155672;27;20022;-69
2022/06/10 07:58:24;;;;;;;10.48;9.40;;;;;;;;;;5155666;27;20266;-69
2022/06/10 08:00:51;;;;;;;8.93;8.10;;;;;;;;;;5155537;27;20018;-69
2022/06/10 08:03:17;;;;;;;12.40;9.32;;;;;;;;;;5155604;27;20057;-68
2022/06/10 08:05:42;;;;;;;11.85;9.63;;;;;;;;;;5155568;27;20381;-69
2022/06/10 08:08:08;;;;;;;10.77;9.60;;;;;;;;;;5155456;27;20118;-69
2022/06/10 08:10:35;;;;;;;10.68;9.68;;;;;;;;;;5155421;27;20026;-69
2022/06/10 08:13:01;;;;;;;9.13;8.23;;;;;;;;;;5155392;27;20026;-69
2022/06/10 08:15:27;;;;;;;10.57;9.55;;;;;;;;;;5155251;27;20069;-69
2022/06/10 08:17:52;;;;;;;11.30;10.20;;;;;;;;;;5156016;27;20113;-69
2022/06/10 08:20:20;;;;;;;11.70;10.50;;;;;;;;;;5155674;27;20113;-69
2022/06/10 08:22:45;;;;;;;10.88;9.77;;;;;;;;;;5155759;27;20015;-69
2022/06/10 08:25:11;;;;;;;11.23;9.65;;;;;;;;;;5155547;27;20037;-69
2022/06/10 08:27:37;;;;;;;10.70;9.70;;;;;;;;;;5136338;27;20109;-69
2022/06/10 08:30:03;;;;;;;9.20;8.30;;;;;;;;;;5154902;27;20117;-68
2022/06/10 08:32:29;;;;;;;10.52;9.60;;;;;;;;;;5154686;27;20034;-69
2022/06/10 08:34:54;;;;;;;12.00;10.30;;;;;;;;;;5154938;27;20115;-70
2022/06/10 08:37:20;;;;;;;11.95;10.43;;;;;;;;;;5154831;27;20066;-69
2022/06/10 08:39:45;;;;;;;12.40;11.15;;;;;;;;;;5154879;27;20027;-70
2022/06/10 08:42:11;;;;;;;10.45;9.45;;;;;;;;;;5154773;27;20038;-69
2022/06/10 08:44:41;;;;;;;13.45;11.93;;;;;;;;;;5155160;27;20029;-70
2022/06/10 08:47:19;;;;;;;12.23;11.02;;;;;;;;;;5155158;27;20072;-70
2022/06/10 08:50:03;;;;;;;12.32;11.13;;;;;;;;;;5155234;27;20034;-69
2022/06/10 08:52:48;;;;;;;11.60;10.38;;;;;;;;;;5154892;27;20022;-69
2022/06/10 08:55:22;;;;;;;13.05;10.60;;;;;;;;;;5154376;27;20023;-69
2022/06/10 08:57:48;;;;;;;12.40;11.15;;;;;;;;;;5154178;27;20023;-69
2022/06/10 09:00:19;;;;;;;10.65;9.60;;;;;;;;;;5154196;27;20473;-69
2022/06/10 09:02:47;;;;;;;10.10;8.98;;;;;;;;;;5157023;27;20042;-69
2022/06/10 09:05:21;;;;;;;11.90;10.70;;;;;;;;;;5158130;27;20050;-69
2022/06/10 09:07:52;;;;;;;11.38;10.07;;;;;;;;;;5158472;27;20038;-68
2022/06/10 09:10:18;;;;;;;12.07;10.07;;;;;;;;;;5158447;27;20037;-69
2022/06/10 09:13:00;;;;;;;14.13;10.75;;;;;;;;;;5158703;27;20022;-69
2022/06/10 09:15:27;;;;;;;11.73;10.63;;;;;;;;;;5158655;27;20029;-69
2022/06/10 09:17:56;;;;;;;11.70;10.60;;;;;;;;;;5158471;27;20026;-69
2022/06/10 09:20:25;;;;;;;11.68;10.38;;;;;;;;;;5158626;27;20437;-69
2022/06/10 09:23:13;;;;;;;12.65;11.35;;;;;;;;;;5158142;27;20037;-70
2022/06/10 09:25:43;;;;;;;11.50;10.43;;;;;;;;;;5158172;27;20454;-70
2022/06/10 09:28:15;;;;;;;12.55;11.25;;;;;;;;;;5157952;27;20022;-70
2022/06/10 09:30:43;;;;;;;12.45;10.93;;;;;;;;;;5157592;27;20046;-69
2022/06/10 09:33:21;;;;;;;13.75;11.90;;;;;;;;;;5157884;27;20042;-69
2022/06/10 09:36:08;;;;;;;14.38;12.88;;;;;;;;;;5158419;27;20411;-69
2022/06/10 09:38:54;;;;;;;12.60;9.88;;;;;;;;;;5157718;27;20038;-70
2022/06/10 09:41:19;;;;;;;13.07;11.75;;;;;;;;;;5157508;27;20562;-69
2022/06/10 09:43:44;;;;;;;13.33;11.93;;;;;;;;;;5157604;27;20034;-69
2022/06/10 09:46:17;;;;;;;13.85;12.45;;;;;;;;;;5157541;27;20270;-70
2022/06/10 09:48:49;;;;;;;16.27;14.38;;;;;;;;;;5157675;27;20534;-70
2022/06/10 09:51:17;;;;;;;15.27;13.68;;;;;;;;;;5157356;27;20087;-70
2022/06/10 09:53:54;;;;;;;15.52;12.07;;;;;;;;;;5157535;27;20019;-69
2022/06/10 09:56:35;;;;;;;15.10;12.40;;;;;;;;;;5157363;27;20114;-70
2022/06/10 09:59:01;;;;;;;12.88;11.52;;;;;;;;;;5157281;27;20018;-76
2022/06/10 10:01:32;;;;;;;14.40;12.88;;;;;;;;;;5157326;27;20381;-69
2022/06/10 10:04:01;;;;;;;14.30;12.57;;;;;;;;;;5157128;27;20034;-69
2022/06/10 10:06:36;;;;;;;16.27;12.52;;;;;;;;;;5157055;27;20057;-68
2022/06/10 10:09:02;;;;;;;14.20;12.45;;;;;;;;;;5157097;27;20034;-68
2022/06/10 10:11:43;;;;;;;16.70;13.27;;;;;;;;;;5156984;27;20015;-69
2022/06/10 10:14:09;;;;;;;19.85;14.80;;;;;;;;;;5156452;27;20603;-69
2022/06/10 10:16:40;;;;;;;15.65;13.95;;;;;;;;;;5157202;27;20046;-67
2022/06/10 10:19:19;;;;;;;16.67;13.30;;;;;;;;;;5156816;27;20102;-67
2022/06/10 10:22:03;;;;;;;20.02;14.77;;;;;;;;;;5156578;27;20034;-68
2022/06/10 10:24:30;;;;;;;19.73;17.13;;;;;;;;;;5156848;27;20031;-69
2022/06/10 10:26:55;;;;;;;20.80;17.20;;;;;;;;;;5156702;27;20018;-68
2022/06/10 10:29:23;;;;;;;18.90;15.38;;;;;;;;;;5155542;27;20087;-69
2022/06/10 10:32:01;;;;;;;17.45;14.55;;;;;;;;;;5156518;27;20041;-67
2022/06/10 10:34:30;;;;;;;19.80;15.02;;;;;;;;;;5156534;27;20052;-69
2022/06/10 10:36:57;;;;;;;11.57;10.35;;;;;;;;;;5157179;27;20018;-69
2022/06/10 10:39:23;;;;;;;18.38;13.35;;;;;;;;;;5156397;27;20027;-68
2022/06/10 10:41:49;;;;;;;15.20;13.47;;;;;;;;;;5156333;27;20029;-68
2022/06/10 10:44:25;;;;;;;16.25;13.88;;;;;;;;;;5156462;27;20620;-68
2022/06/10 10:47:00;;;;;;;18.48;14.70;;;;;;;;;;5156388;27;20477;-68
2022/06/10 10:49:31;;;;;;;17.65;13.80;;;;;;;;;;5156236;27;20030;-67
2022/06/10 10:51:57;;;;;;;14.73;13.18;;;;;;;;;;5156285;27;20054;-68
2022/06/10 10:54:25;;;;;;;15.68;13.98;;;;;;;;;;5156359;27;20503;-69
2022/06/10 10:56:53;;;;;;;15.80;14.10;;;;;;;;;;5156148;27;20023;-69
2022/06/10 10:59:21;;;;;;;15.90;14.15;;;;;;;;;;5155900;27;20023;-69
2022/06/10 11:01:50;;;;;;;14.18;11.80;;;;;;;;;;5155962;27;20109;-68
2022/06/10 11:04:28;;;;;;;14.65;12.68;;;;;;;;;;5155812;27;20110;-74
2022/06/10 11:07:12;;;;;;;18.35;14.15;;;;;;;;;;5155973;27;20041;-68
2022/06/10 11:09:45;;;;;;;13.63;12.25;;;;;;;;;;5156028;27;20062;-66
2022/06/10 11:12:19;;;;;;;14.27;12.77;;;;;;;;;;5155847;27;20069;-67
2022/06/10 11:14:49;;;;;;;13.75;12.35;;;;;;;;;;5155939;27;20031;-68
2022/06/10 11:17:15;;;;;;;;;;;;;;;;;;5156363;27;20019;-69
2022/06/10 11:19:40;;;;;;;15.65;14.00;;;;;;;;;;5155870;27;19907;-70
2022/06/10 11:22:16;;;;;;;16.77;14.95;;;;;;;;;;5155690;27;20053;-70
2022/06/10 11:24:43;;;;;;;16.40;14.65;;;;;;;;;;5154882;27;20034;-69
2022/06/10 11:27:29;;;;;;;14.20;12.70;;;;;;;;;;5155288;27;20023;-69
2022/06/10 11:30:15;;;;;;;16.58;13.52;;;;;;;;;;5155100;27;20053;-73
2022/06/10 11:32:49;;;;;;;18.05;13.27;;;;;;;;;;5155203;27;20569;-75
2022/06/10 11:35:34;;;;;;;14.00;12.60;;;;;;;;;;5155557;27;20034;-75
2022/06/10 11:38:17;;;;;;;12.98;11.68;;;;;;;;;;5155607;27;20039;-73
2022/06/10 11:40:42;;;;;;;14.07;12.68;;;;;;;;;;5155454;27;20066;-74
2022/06/10 11:43:19;;;;;;;12.23;11.02;;;;;;;;;;5155386;27;20026;-75
2022/06/10 11:45:48;;;;;;;11.13;10.02;;;;;;;;;;5155277;27;20510;-73
2022/06/10 11:48:32;;;;;;;11.52;10.38;;;;;;;;;;5155283;27;20042;-74
2022/06/10 11:51:00;;;;;;;10.73;9.73;;;;;;;;;;5155091;27;20027;-75
2022/06/10 11:53:39;;;;;;;8.65;7.95;;;;;;;;;;5155304;27;20047;-75
2022/06/10 12:01:51;;;;;;;9.25;8.50;;;;;;;;;;5155177;27;20033;-75
2022/06/10 12:04:29;;;;;;;10.00;6.80;;;;;;;;;;5136664;27;20010;-74
2022/06/10 12:06:57;;;;;;;7.97;6.95;;;;;;;;;;5154989;27;20169;-74
2022/06/10 12:09:38;;;;;;;7.13;6.47;;;;;;;;;;5154968;27;20011;-74
2022/06/10 12:12:18;;;;;;;7.80;7.00;;;;;;;;;;5154869;27;20066;-74
2022/06/10 12:14:44;;;;;;;;;;;;;;;;;;5155551;27;20113;-74
2022/06/10 12:17:24;;;;;;;6.83;6.33;;;;;;;;;;5155426;27;20387;-74
2022/06/10 12:20:14;;;;;;;7.25;6.57;;;;;;;;;;5155273;27;20023;-74
2022/06/10 12:22:39;;;;;;;7.00;6.40;;;;;;;;;;5146367;27;20035;-74
2022/06/10 12:25:14;;;;;;;6.75;6.15;;;;;;;;;;5154545;27;20013;-74
2022/06/10 12:27:43;;;;;;;6.50;6.10;;;;;;;;;;5155194;27;20152;-74
2022/06/10 12:30:11;;;;;;;5.65;5.25;;;;;;;;;;5155040;27;20043;-73
2022/06/10 12:32:36;;;;;;;6.43;6.03;;;;;;;;;;5155225;27;20033;-73
2022/06/10 12:35:11;;;;;;;6.20;5.70;;;;;;;;;;5155262;27;20378;-73
2022/06/10 12:37:46;;;;;;;5.72;5.30;;;;;;;;;;5159517;27;20275;-73
2022/06/10 12:40:18;;;;;;;6.60;6.03;;;;;;;;;;5159375;27;20026;-74
2022/06/10 12:42:43;;;;;;;6.18;5.68;;;;;;;;;;5159496;27;20027;-74
2022/06/10 12:45:21;;;;;;;6.07;5.57;;;;;;;;;;5159017;27;20288;-74
2022/06/10 12:47:47;;;;;;;6.00;5.50;;;;;;;;;;5158316;27;20030;-74
2022/06/10 12:50:21;;;;;;;6.90;6.40;;;;;;;;;;5158190;27;20079;-73
2022/06/10 12:52:52;;;;;;;5.47;5.18;;;;;;;;;;5158174;27;20035;-72
2022/06/10 12:55:18;;;;;;;6.28;5.53;;;;;;;;;;5139498;27;20384;-73
2022/06/10 12:57:44;;;;;;;5.95;5.45;;;;;;;;;;5158082;27;20023;-74
2022/06/10 13:00:18;;;;;;;7.70;5.95;;;;;;;;;;5157972;27;20022;-73
2022/06/10 13:02:44;;;;;;;5.22;4.85;;;;;;;;;;5157957;27;20026;-74
2022/06/10 13:05:33;;;;;;;6.55;6.00;;;;;;;;;;5157928;27;20364;-74
2022/06/10 13:07:59;;;;;;;6.63;5.35;;;;;;;;;;5156459;27;20035;-73
2022/06/10 13:10:33;;;;;;;5.88;5.38;;;;;;;;;;5157939;27;20023;-73
2022/06/10 13:12:58;;;;;;;4.97;4.45;;;;;;;;;;5157662;27;20048;-73
2022/06/10 13:15:29;;;;;;;5.43;4.97;;;;;;;;;;5157792;27;20473;-73
2022/06/10 13:18:00;;;;;;;4.13;3.88;;;;;;;;;;5157675;27;20279;-74
2022/06/10 13:20:27;;;;;;;5.43;4.93;;;;;;;;;;5157430;27;20426;-73
2022/06/10 13:23:13;;;;;;;4.85;4.43;;;;;;;;;;5157547;27;20022;-74
2022/06/10 13:25:39;;;;;;;4.82;4.53;;;;;;;;;;5157580;27;20518;-73
2022/06/10 13:28:15;;;;;;;3.95;3.65;;;;;;;;;;5157298;27;20023;-72
2022/06/10 13:30:42;;;;;;;4.00;3.80;;;;;;;;;;5135170;27;20122;-72
2022/06/10 13:33:12;;;;;;;4.38;4.07;;;;;;;;;;5136782;27;20114;-72
2022/06/10 13:35:48;;;;;;;4.22;3.78;;;;;;;;;;5136443;27;20101;-72
2022/06/10 13:38:25;;;;;;;4.72;3.92;;;;;;;;;;5137604;27;20027;-72
2022/06/10 13:41:48;;;;;;;5.00;4.60;;;;;;;;;;5137574;27;20038;-72
2022/06/10 13:43:41;;;;;;;5.20;4.45;;;;;;;;;;5137443;27;20164;-72
2022/06/10 13:46:09;;;;;;;6.47;4.90;;;;;;;;;;5137553;27;20097;-72
2022/06/10 13:48:35;;;;;;;4.88;4.28;;;;;;;;;;5136688;27;20038;-73
2022/06/10 13:53:37;;;;;;;4.35;3.88;;;;;;;;;;5137386;27;20033;-72
2022/06/10 13:56:04;;;;;;;4.70;4.28;;;;;;;;;;5137421;27;20168;-72
2022/06/10 13:58:32;;;;;;;6.82;4.95;;;;;;;;;;5137408;27;20031;-72
2022/06/10 14:01:14;;;;;;;5.95;5.10;;;;;;;;;;5137217;27;20026;-72
2022/06/10 14:03:41;;;;;;;5.47;5.07;;;;;;;;;;5137169;27;20031;-72
2022/06/10 14:06:16;;;;;;;7.65;5.45;;;;;;;;;;5136112;27;20389;-73
2022/06/10 14:08:47;;;;;;;5.78;4.20;;;;;;;;;;5137232;27;20441;-72
2022/06/10 14:11:15;;;;;;;4.65;4.30;;;;;;;;;;5137012;27;20038;-72
2022/06/10 14:13:49;;;;;;;4.47;4.15;;;;;;;;;;5137040;27;20023;-72
2022/06/10 14:16:15;;;;;;;5.10;4.72;;;;;;;;;;5136877;27;20117;-72
2022/06/10 14:18:43;;;;;;;5.40;5.07;;;;;;;;;;5136813;27;20027;-73
2022/06/10 14:21:09;;;;;;;5.00;4.70;;;;;;;;;;5136771;27;20055;-72
2022/06/10 14:23:37;;;;;;;5.85;4.80;;;;;;;;;;5136781;27;20485;-72
2022/06/10 14:26:05;;;;;;;5.70;5.30;;;;;;;;;;5136765;27;20111;-73
2022/06/10 14:28:31;;;;;;;5.00;4.55;;;;;;;;;;5136703;27;20022;-73
2022/06/10 14:30:59;;;;;;;5.47;4.97;;;;;;;;;;5135181;27;20043;-73
2022/06/10 14:33:30;;;;;;;5.70;5.20;;;;;;;;;;5136602;27;20023;-72
2022/06/10 14:36:06;;;;;;;9.13;6.47;;;;;;;;;;5136562;27;20062;-72
2022/06/10 14:38:33;;;;;;;6.28;5.68;;;;;;;;;;5136506;27;20027;-72
2022/06/10 14:41:08;;;;;;;8.50;6.45;;;;;;;;;;5135072;27;20022;-73
2022/06/10 14:43:35;;;;;;;6.63;5.35;;;;;;;;;;5136413;27;20031;-72
2022/06/10 14:46:03;;;;;;;5.55;5.05;;;;;;;;;;5136393;27;20026;-72
2022/06/10 14:48:32;;;;;;;4.93;4.53;;;;;;;;;;5136366;27;20019;-72
2022/06/10 14:51:07;;;;;;;6.65;5.05;;;;;;;;;;5136219;27;20069;-72
2022/06/10 14:53:34;;;;;;;5.95;4.03;;;;;;;;;;5136229;27;20027;-73
2022/06/10 14:55:59;;;;;;;5.22;4.82;;;;;;;;;;5136378;27;20109;-72
2022/06/10 14:58:25;;;;;;;5.75;4.88;;;;;;;;;;5135760;27;20426;-72
2022/06/10 15:00:51;;;;;;;5.32;4.90;;;;;;;;;;5135320;27;20022;-72
2022/06/10 15:03:19;;;;;;;5.88;5.28;;;;;;;;;;5135924;27;20043;-73